MDPP/POP METAR and TAF weather

Enter ICAO airport designator
Station Type Date Time Source
MDPP METAR 2022/01/18 06:00 UTC NOAA

MDPP 180600Z 00000KT 9999 BKN016 21/20 Q1015


Station Type Date Time Source
MDPP Decoded METAR 2022/01/18 06:00 UTC NOAA

Puerto Plata International, Dominican Republic (MDPP) 19-45N 070-33W
Jan 18, 2022 - 01:00 AM EST / 2022.01.18 0600 UTC
Wind: Calm:0
Visibility: greater than 7 mile(s):0
Sky conditions: mostly cloudy
Temperature: 69 F (21 C)
Dew Point: 68 F (20 C)
Relative Humidity: 94%
Pressure (altimeter): 29.97 in. Hg (1015 hPa)
ob: MDPP 180600Z 00000KT 9999 BKN016 21/20 Q1015
cycle: 6

Station Type Date Time Source
MDPP TAF 2022/01/18 06:28 UTC NOAA

TAF MDPP 1806/1906 00000KT 9999 SCT016 PROB30 1807/1812 7000-RA BKN015
BECMG 1812/1814 12008KT

Example: see airport list